sensor_id;sensor_type;location;lat;lon;timestamp;temperature;humidity
18670;DHT22;9464;44.918;9.670;2023-02-20T10:13:46;10.70;1.00
18670;DHT22;9464;44.918;9.670;2023-02-20T10:16:27;10.70;1.00
18670;DHT22;9464;44.918;9.670;2023-02-20T10:19:07;10.70;1.00
18670;DHT22;9464;44.918;9.670;2023-02-20T10:21:46;10.80;1.00
18670;DHT22;9464;44.918;9.670;2023-02-20T10:24:37;10.80;1.00
18670;DHT22;9464;44.918;9.670;2023-02-20T10:27:24;10.80;1.00
18670;DHT22;9464;44.918;9.670;2023-02-20T10:29:53;10.90;1.00
18670;DHT22;9464;44.918;9.670;2023-02-20T10:32:29;10.90;1.00
18670;DHT22;9464;44.918;9.670;2023-02-20T10:35:03;10.90;1.00
18670;DHT22;9464;44.918;9.670;2023-02-20T10:37:36;10.90;1.00
18670;DHT22;9464;44.918;9.670;2023-02-20T10:40:19;10.90;1.00
18670;DHT22;9464;44.918;9.670;2023-02-20T10:42:54;10.90;1.00
18670;DHT22;9464;44.918;9.670;2023-02-20T10:45:33;11.00;1.00
18670;DHT22;9464;44.918;9.670;2023-02-20T10:48:07;11.00;1.00
18670;DHT22;9464;44.918;9.670;2023-02-20T10:50:40;11.00;1.00
18670;DHT22;9464;44.918;9.670;2023-02-20T10:53:18;11.00;1.00
18670;DHT22;9464;44.918;9.670;2023-02-20T10:55:52;11.00;1.00
18670;DHT22;9464;44.918;9.670;2023-02-20T10:58:26;11.00;1.00
18670;DHT22;9464;44.918;9.670;2023-02-20T11:00:58;11.00;1.00
18670;DHT22;9464;44.918;9.670;2023-02-20T11:03:36;11.00;1.00
18670;DHT22;9464;44.918;9.670;2023-02-20T11:06:09;11.00;1.00
18670;DHT22;9464;44.918;9.670;2023-02-20T11:08:39;11.00;1.00
18670;DHT22;9464;44.918;9.670;2023-02-20T11:11:20;11.10;1.00
18670;DHT22;9464;44.918;9.670;2023-02-20T11:13:49;11.10;1.00
18670;DHT22;9464;44.918;9.670;2023-02-20T11:16:23;11.10;1.00
18670;DHT22;9464;44.918;9.670;2023-02-20T11:19:06;11.20;1.00
18670;DHT22;9464;44.918;9.670;2023-02-20T11:21:40;11.20;1.00
18670;DHT22;9464;44.918;9.670;2023-02-20T11:24:24;11.20;1.00
18670;DHT22;9464;44.918;9.670;2023-02-20T11:26:57;11.20;1.00
18670;DHT22;9464;44.918;9.670;2023-02-20T11:29:33;11.20;1.00
18670;DHT22;9464;44.918;9.670;2023-02-20T11:32:25;11.20;1.00
18670;DHT22;9464;44.918;9.670;2023-02-20T11:35:20;11.30;1.00
18670;DHT22;9464;44.918;9.670;2023-02-20T11:37:50;11.30;1.00
18670;DHT22;9464;44.918;9.670;2023-02-20T11:40:26;11.30;1.00
18670;DHT22;9464;44.918;9.670;2023-02-20T11:42:55;11.40;1.00
18670;DHT22;9464;44.918;9.670;2023-02-20T11:45:36;11.40;1.00
18670;DHT22;9464;44.918;9.670;2023-02-20T11:48:07;11.40;1.00
18670;DHT22;9464;44.918;9.670;2023-02-20T11:50:42;11.40;1.00
18670;DHT22;9464;44.918;9.670;2023-02-20T11:53:19;11.40;1.00
18670;DHT22;9464;44.918;9.670;2023-02-20T11:55:47;11.40;1.00
18670;DHT22;9464;44.918;9.670;2023-02-20T11:58:27;11.50;1.00
18670;DHT22;9464;44.918;9.670;2023-02-20T12:00:55;11.50;1.00
18670;DHT22;9464;44.918;9.670;2023-02-20T12:03:25;11.50;1.00
18670;DHT22;9464;44.918;9.670;2023-02-20T12:05:57;11.60;1.00
18670;DHT22;9464;44.918;9.670;2023-02-20T12:08:33;11.60;1.00
18670;DHT22;9464;44.918;9.670;2023-02-20T12:11:06;11.60;1.00
18670;DHT22;9464;44.918;9.670;2023-02-20T12:13:37;11.70;1.00
18670;DHT22;9464;44.918;9.670;2023-02-20T12:16:21;11.70;1.00
18670;DHT22;9464;44.918;9.670;2023-02-20T12:18:57;11.70;1.00
18670;DHT22;9464;44.918;9.670;2023-02-20T12:21:34;11.70;1.00
18670;DHT22;9464;44.918;9.670;2023-02-20T12:24:12;11.70;1.00
18670;DHT22;9464;44.918;9.670;2023-02-20T12:26:50;11.70;1.00
18670;DHT22;9464;44.918;9.670;2023-02-20T12:29:30;11.70;1.00
18670;DHT22;9464;44.918;9.670;2023-02-20T12:32:09;11.80;1.00
18670;DHT22;9464;44.918;9.670;2023-02-20T12:34:48;11.80;1.00
18670;DHT22;9464;44.918;9.670;2023-02-20T12:37:26;11.80;1.00
18670;DHT22;9464;44.918;9.670;2023-02-20T12:40:11;11.90;1.00
18670;DHT22;9464;44.918;9.670;2023-02-20T12:42:51;11.90;1.00
18670;DHT22;9464;44.918;9.670;2023-02-20T12:45:28;11.90;1.00
18670;DHT22;9464;44.918;9.670;2023-02-20T12:48:11;11.90;1.00
18670;DHT22;9464;44.918;9.670;2023-02-20T12:51:05;11.90;1.00
18670;DHT22;9464;44.918;9.670;2023-02-20T12:54:02;12.00;1.00
18670;DHT22;9464;44.918;9.670;2023-02-20T12:56:42;12.00;1.00
18670;DHT22;9464;44.918;9.670;2023-02-20T12:59:23;12.00;1.00
18670;DHT22;9464;44.918;9.670;2023-02-20T13:01:52;12.00;1.00
18670;DHT22;9464;44.918;9.670;2023-02-20T13:04:27;12.00;1.00
18670;DHT22;9464;44.918;9.670;2023-02-20T13:07:02;12.10;1.00
18670;DHT22;9464;44.918;9.670;2023-02-20T13:09:36;12.00;1.00
18670;DHT22;9464;44.918;9.670;2023-02-20T13:12:09;12.00;1.00
18670;DHT22;9464;44.918;9.670;2023-02-20T13:14:54;12.00;1.00
18670;DHT22;9464;44.918;9.670;2023-02-20T13:17:32;12.10;1.00
18670;DHT22;9464;44.918;9.670;2023-02-20T13:20:11;12.20;1.00
18670;DHT22;9464;44.918;9.670;2023-02-20T13:22:42;12.20;1.00
18670;DHT22;9464;44.918;9.670;2023-02-20T13:25:45;12.20;1.00
18670;DHT22;9464;44.918;9.670;2023-02-20T13:28:23;12.20;1.00
18670;DHT22;9464;44.918;9.670;2023-02-20T13:31:11;12.30;1.00
18670;DHT22;9464;44.918;9.670;2023-02-20T13:33:41;12.30;1.00
18670;DHT22;9464;44.918;9.670;2023-02-20T13:36:38;12.30;1.00
18670;DHT22;9464;44.918;9.670;2023-02-20T13:39:29;12.30;1.00
18670;DHT22;9464;44.918;9.670;2023-02-20T13:42:04;12.40;1.00
18670;DHT22;9464;44.918;9.670;2023-02-20T13:44:40;12.20;1.00
18670;DHT22;9464;44.918;9.670;2023-02-20T13:47:32;12.10;1.00
18670;DHT22;9464;44.918;9.670;2023-02-20T13:50:03;12.40;1.00
18670;DHT22;9464;44.918;9.670;2023-02-20T13:52:51;12.40;1.00
18670;DHT22;9464;44.918;9.670;2023-02-20T13:55:25;12.30;1.00
18670;DHT22;9464;44.918;9.670;2023-02-20T13:58:02;12.40;1.00
18670;DHT22;9464;44.918;9.670;2023-02-20T14:00:40;12.60;1.00
18670;DHT22;9464;44.918;9.670;2023-02-20T14:03:12;12.80;1.00
18670;DHT22;9464;44.918;9.670;2023-02-20T14:05:41;12.90;1.00
18670;DHT22;9464;44.918;9.670;2023-02-20T14:08:16;13.00;1.00
18670;DHT22;9464;44.918;9.670;2023-02-20T14:10:45;13.10;1.00
18670;DHT22;9464;44.918;9.670;2023-02-20T14:13:18;13.30;1.00
18670;DHT22;9464;44.918;9.670;2023-02-20T14:16:26;13.20;1.00
18670;DHT22;9464;44.918;9.670;2023-02-20T14:18:57;13.20;1.00
18670;DHT22;9464;44.918;9.670;2023-02-20T14:21:26;13.40;1.00
18670;DHT22;9464;44.918;9.670;2023-02-20T14:23:55;13.30;1.00
18670;DHT22;9464;44.918;9.670;2023-02-20T14:26:25;13.40;1.00
18670;DHT22;9464;44.918;9.670;2023-02-20T14:28:57;13.70;1.00
18670;DHT22;9464;44.918;9.670;2023-02-20T14:31:26;13.70;1.00
18670;DHT22;9464;44.918;9.670;2023-02-20T14:33:56;13.90;1.00
18670;DHT22;9464;44.918;9.670;2023-02-20T14:36:41;14.10;1.00
18670;DHT22;9464;44.918;9.670;2023-02-20T14:42:19;13.90;1.00
18670;DHT22;9464;44.918;9.670;2023-02-20T14:44:55;13.70;1.00
18670;DHT22;9464;44.918;9.670;2023-02-20T14:47:26;13.70;1.00
18670;DHT22;9464;44.918;9.670;2023-02-20T14:50:07;13.70;1.00
18670;DHT22;9464;44.918;9.670;2023-02-20T14:52:36;13.60;1.00
18670;DHT22;9464;44.918;9.670;2023-02-20T14:55:05;13.60;1.00
18670;DHT22;9464;44.918;9.670;2023-02-20T14:57:33;13.60;1.00
18670;DHT22;9464;44.918;9.670;2023-02-20T15:00:25;13.60;1.00
18670;DHT22;9464;44.918;9.670;2023-02-20T15:02:59;13.60;1.00
18670;DHT22;9464;44.918;9.670;2023-02-20T15:05:30;13.50;1.00
18670;DHT22;9464;44.918;9.670;2023-02-20T15:08:04;13.50;1.00
18670;DHT22;9464;44.918;9.670;2023-02-20T15:10:39;13.40;1.00
18670;DHT22;9464;44.918;9.670;2023-02-20T15:13:09;13.40;1.00
18670;DHT22;9464;44.918;9.670;2023-02-20T15:15:42;13.40;1.00
18670;DHT22;9464;44.918;9.670;2023-02-20T15:18:12;13.40;1.00
18670;DHT22;9464;44.918;9.670;2023-02-20T15:20:44;13.40;1.00
18670;DHT22;9464;44.918;9.670;2023-02-20T15:23:23;13.40;1.00
18670;DHT22;9464;44.918;9.670;2023-02-20T15:25:52;13.40;1.00
18670;DHT22;9464;44.918;9.670;2023-02-20T15:28:25;13.40;1.00
18670;DHT22;9464;44.918;9.670;2023-02-20T15:31:20;13.40;1.00
18670;DHT22;9464;44.918;9.670;2023-02-20T15:33:52;13.40;1.00
18670;DHT22;9464;44.918;9.670;2023-02-20T15:36:22;13.40;1.00
18670;DHT22;9464;44.918;9.670;2023-02-20T15:38:52;13.40;1.00
18670;DHT22;9464;44.918;9.670;2023-02-20T15:41:21;13.40;1.00
18670;DHT22;9464;44.918;9.670;2023-02-20T15:43:50;13.40;1.00
18670;DHT22;9464;44.918;9.670;2023-02-20T15:46:20;13.40;1.00
18670;DHT22;9464;44.918;9.670;2023-02-20T15:48:48;13.40;1.00
18670;DHT22;9464;44.918;9.670;2023-02-20T15:51:19;13.40;1.00
18670;DHT22;9464;44.918;9.670;2023-02-20T15:53:50;13.40;1.00
18670;DHT22;9464;44.918;9.670;2023-02-20T15:56:19;13.40;1.00
18670;DHT22;9464;44.918;9.670;2023-02-20T15:58:48;13.30;1.00
18670;DHT22;9464;44.918;9.670;2023-02-20T16:01:17;13.30;1.00
18670;DHT22;9464;44.918;9.670;2023-02-20T16:03:47;13.30;1.00
18670;DHT22;9464;44.918;9.670;2023-02-20T16:06:19;13.30;1.00
18670;DHT22;9464;44.918;9.670;2023-02-20T16:08:48;13.30;1.00
18670;DHT22;9464;44.918;9.670;2023-02-20T16:11:17;13.30;1.00
18670;DHT22;9464;44.918;9.670;2023-02-20T16:13:48;13.30;1.00
18670;DHT22;9464;44.918;9.670;2023-02-20T16:16:21;13.30;1.00
18670;DHT22;9464;44.918;9.670;2023-02-20T16:18:53;13.30;1.00
18670;DHT22;9464;44.918;9.670;2023-02-20T16:21:22;13.30;1.00
18670;DHT22;9464;44.918;9.670;2023-02-20T16:23:51;13.30;1.00
18670;DHT22;9464;44.918;9.670;2023-02-20T16:26:24;13.30;1.00
18670;DHT22;9464;44.918;9.670;2023-02-20T16:28:57;13.30;1.00
18670;DHT22;9464;44.918;9.670;2023-02-20T16:34:29;13.30;1.00
18670;DHT22;9464;44.918;9.670;2023-02-20T16:36:59;13.20;1.00
18670;DHT22;9464;44.918;9.670;2023-02-20T16:39:27;13.20;1.00
18670;DHT22;9464;44.918;9.670;2023-02-20T16:41:56;13.20;1.00
18670;DHT22;9464;44.918;9.670;2023-02-20T16:44:31;13.20;1.00
18670;DHT22;9464;44.918;9.670;2023-02-20T16:47:01;13.10;1.00
18670;DHT22;9464;44.918;9.670;2023-02-20T16:49:31;13.10;1.00
18670;DHT22;9464;44.918;9.670;2023-02-20T16:52:03;13.10;1.00
18670;DHT22;9464;44.918;9.670;2023-02-20T16:54:37;13.00;1.00
18670;DHT22;9464;44.918;9.670;2023-02-20T16:57:05;13.00;1.00
18670;DHT22;9464;44.918;9.670;2023-02-20T16:59:34;13.00;1.00
18670;DHT22;9464;44.918;9.670;2023-02-20T17:02:02;13.00;1.00
18670;DHT22;9464;44.918;9.670;2023-02-20T17:04:32;13.00;1.00
18670;DHT22;9464;44.918;9.670;2023-02-20T17:07:00;12.90;1.00
18670;DHT22;9464;44.918;9.670;2023-02-20T17:09:28;12.90;1.00
18670;DHT22;9464;44.918;9.670;2023-02-20T17:12:09;12.90;1.00
18670;DHT22;9464;44.918;9.670;2023-02-20T17:14:37;12.80;1.00
18670;DHT22;9464;44.918;9.670;2023-02-20T17:17:05;12.80;1.00
18670;DHT22;9464;44.918;9.670;2023-02-20T17:19:37;12.80;1.00
18670;DHT22;9464;44.918;9.670;2023-02-20T17:22:05;12.70;1.00
18670;DHT22;9464;44.918;9.670;2023-02-20T17:24:34;12.70;1.00
18670;DHT22;9464;44.918;9.670;2023-02-20T17:27:03;12.60;1.00
18670;DHT22;9464;44.918;9.670;2023-02-20T17:29:31;12.60;1.00
18670;DHT22;9464;44.918;9.670;2023-02-20T17:31:59;12.60;1.00
18670;DHT22;9464;44.918;9.670;2023-02-20T17:34:28;12.50;1.00
18670;DHT22;9464;44.918;9.670;2023-02-20T17:36:57;12.50;1.00
18670;DHT22;9464;44.918;9.670;2023-02-20T17:39:25;12.50;1.00
18670;DHT22;9464;44.918;9.670;2023-02-20T17:41:54;12.50;1.00
18670;DHT22;9464;44.918;9.670;2023-02-20T17:44:24;12.40;1.00
18670;DHT22;9464;44.918;9.670;2023-02-20T17:46:54;12.40;1.00
18670;DHT22;9464;44.918;9.670;2023-02-20T17:49:24;12.40;1.00
18670;DHT22;9464;44.918;9.670;2023-02-20T17:51:54;12.40;1.00
18670;DHT22;9464;44.918;9.670;2023-02-20T17:54:26;12.30;1.00
18670;DHT22;9464;44.918;9.670;2023-02-20T17:56:54;12.30;1.00
18670;DHT22;9464;44.918;9.670;2023-02-20T17:59:23;12.30;1.00
18670;DHT22;9464;44.918;9.670;2023-02-20T18:01:51;12.30;1.00
18670;DHT22;9464;44.918;9.670;2023-02-20T18:04:20;12.20;1.00
18670;DHT22;9464;44.918;9.670;2023-02-20T18:06:48;12.20;1.00
18670;DHT22;9464;44.918;9.670;2023-02-20T18:09:17;12.20;1.00
18670;DHT22;9464;44.918;9.670;2023-02-20T18:11:48;12.20;1.00
18670;DHT22;9464;44.918;9.670;2023-02-20T18:14:17;12.10;1.00
18670;DHT22;9464;44.918;9.670;2023-02-20T18:16:46;12.10;1.00
18670;DHT22;9464;44.918;9.670;2023-02-20T18:19:15;12.10;1.00
18670;DHT22;9464;44.918;9.670;2023-02-20T18:21:44;12.00;1.00
18670;DHT22;9464;44.918;9.670;2023-02-20T18:24:16;12.00;1.00
18670;DHT22;9464;44.918;9.670;2023-02-20T18:26:45;12.00;1.00
18670;DHT22;9464;44.918;9.670;2023-02-20T18:29:15;12.00;1.00
18670;DHT22;9464;44.918;9.670;2023-02-20T18:31:43;12.00;1.00
18670;DHT22;9464;44.918;9.670;2023-02-20T18:34:11;11.90;1.00
18670;DHT22;9464;44.918;9.670;2023-02-20T18:36:40;11.90;1.00
18670;DHT22;9464;44.918;9.670;2023-02-20T18:39:08;11.90;1.00
18670;DHT22;9464;44.918;9.670;2023-02-20T18:41:40;11.80;1.00
18670;DHT22;9464;44.918;9.670;2023-02-20T18:44:08;11.80;1.00
18670;DHT22;9464;44.918;9.670;2023-02-20T18:46:38;11.80;1.00
18670;DHT22;9464;44.918;9.670;2023-02-20T18:49:06;11.80;1.00
18670;DHT22;9464;44.918;9.670;2023-02-20T18:51:36;11.70;1.00
18670;DHT22;9464;44.918;9.670;2023-02-20T18:54:06;11.70;1.00
18670;DHT22;9464;44.918;9.670;2023-02-20T18:56:35;11.70;1.00
18670;DHT22;9464;44.918;9.670;2023-02-20T18:59:04;11.70;1.00
18670;DHT22;9464;44.918;9.670;2023-02-20T19:01:33;11.60;1.00
18670;DHT22;9464;44.918;9.670;2023-02-20T19:04:02;11.60;1.00
18670;DHT22;9464;44.918;9.670;2023-02-20T19:06:33;11.60;1.00
18670;DHT22;9464;44.918;9.670;2023-02-20T19:09:03;11.60;1.00
18670;DHT22;9464;44.918;9.670;2023-02-20T19:11:32;11.60;1.00
18670;DHT22;9464;44.918;9.670;2023-02-20T19:14:00;11.50;1.00
18670;DHT22;9464;44.918;9.670;2023-02-20T19:16:29;11.50;1.00
18670;DHT22;9464;44.918;9.670;2023-02-20T19:18:57;11.50;1.00
18670;DHT22;9464;44.918;9.670;2023-02-20T19:21:27;11.50;1.00
18670;DHT22;9464;44.918;9.670;2023-02-20T19:23:55;11.50;1.00
18670;DHT22;9464;44.918;9.670;2023-02-20T19:26:23;11.40;1.00
18670;DHT22;9464;44.918;9.670;2023-02-20T19:28:51;11.40;1.00
18670;DHT22;9464;44.918;9.670;2023-02-20T19:31:20;11.40;1.00
18670;DHT22;9464;44.918;9.670;2023-02-20T19:33:48;11.40;1.00
18670;DHT22;9464;44.918;9.670;2023-02-20T19:36:16;11.40;1.00
18670;DHT22;9464;44.918;9.670;2023-02-20T19:38:46;11.40;1.00
18670;DHT22;9464;44.918;9.670;2023-02-20T19:41:15;11.30;1.00
18670;DHT22;9464;44.918;9.670;2023-02-20T19:43:45;11.30;1.00
18670;DHT22;9464;44.918;9.670;2023-02-20T19:46:14;11.30;1.00
18670;DHT22;9464;44.918;9.670;2023-02-20T19:48:43;11.30;1.00
18670;DHT22;9464;44.918;9.670;2023-02-20T19:51:12;11.20;1.00
18670;DHT22;9464;44.918;9.670;2023-02-20T19:53:40;11.20;1.00
18670;DHT22;9464;44.918;9.670;2023-02-20T19:56:10;11.20;1.00
18670;DHT22;9464;44.918;9.670;2023-02-20T19:58:40;11.10;1.00
18670;DHT22;9464;44.918;9.670;2023-02-20T20:01:11;11.10;1.00
18670;DHT22;9464;44.918;9.670;2023-02-20T20:03:41;11.10;1.00
18670;DHT22;9464;44.918;9.670;2023-02-20T20:06:09;11.10;1.00
18670;DHT22;9464;44.918;9.670;2023-02-20T20:08:38;11.10;1.00
18670;DHT22;9464;44.918;9.670;2023-02-20T20:11:28;11.00;1.00
18670;DHT22;9464;44.918;9.670;2023-02-20T20:13:56;11.00;1.00
18670;DHT22;9464;44.918;9.670;2023-02-20T20:16:24;11.00;1.00
18670;DHT22;9464;44.918;9.670;2023-02-20T20:18:53;10.90;1.00
18670;DHT22;9464;44.918;9.670;2023-02-20T20:21:21;10.90;1.00
18670;DHT22;9464;44.918;9.670;2023-02-20T20:23:52;10.90;1.00
18670;DHT22;9464;44.918;9.670;2023-02-20T20:26:24;10.90;1.00
18670;DHT22;9464;44.918;9.670;2023-02-20T20:28:54;10.90;1.00
18670;DHT22;9464;44.918;9.670;2023-02-20T20:31:24;10.80;1.00
18670;DHT22;9464;44.918;9.670;2023-02-20T20:33:53;10.80;1.00
18670;DHT22;9464;44.918;9.670;2023-02-20T20:36:21;10.80;1.00
18670;DHT22;9464;44.918;9.670;2023-02-20T20:38:50;10.80;1.00
18670;DHT22;9464;44.918;9.670;2023-02-20T20:41:18;10.80;1.00
18670;DHT22;9464;44.918;9.670;2023-02-20T20:43:47;10.70;1.00
18670;DHT22;9464;44.918;9.670;2023-02-20T20:46:16;10.70;1.00
18670;DHT22;9464;44.918;9.670;2023-02-20T20:48:45;10.70;1.00
18670;DHT22;9464;44.918;9.670;2023-02-20T20:51:15;10.70;1.00
18670;DHT22;9464;44.918;9.670;2023-02-20T20:53:44;10.60;1.00
18670;DHT22;9464;44.918;9.670;2023-02-20T20:56:12;10.60;1.00
18670;DHT22;9464;44.918;9.670;2023-02-20T20:58:40;10.60;1.00
18670;DHT22;9464;44.918;9.670;2023-02-20T21:01:10;10.60;1.00
18670;DHT22;9464;44.918;9.670;2023-02-20T21:03:40;10.60;1.00
18670;DHT22;9464;44.918;9.670;2023-02-20T21:06:08;10.60;1.00
18670;DHT22;9464;44.918;9.670;2023-02-20T21:08:36;10.50;1.00
18670;DHT22;9464;44.918;9.670;2023-02-20T21:11:05;10.50;1.00
18670;DHT22;9464;44.918;9.670;2023-02-20T21:13:33;10.50;1.00
18670;DHT22;9464;44.918;9.670;2023-02-20T21:16:01;10.50;1.00
18670;DHT22;9464;44.918;9.670;2023-02-20T21:18:29;10.50;1.00
18670;DHT22;9464;44.918;9.670;2023-02-20T21:20:59;10.40;1.00
18670;DHT22;9464;44.918;9.670;2023-02-20T21:23:27;10.40;1.00
18670;DHT22;9464;44.918;9.670;2023-02-20T21:25:56;10.40;1.00
18670;DHT22;9464;44.918;9.670;2023-02-20T21:28:24;10.40;1.00
18670;DHT22;9464;44.918;9.670;2023-02-20T21:30:52;10.40;1.00
18670;DHT22;9464;44.918;9.670;2023-02-20T21:33:20;10.40;1.00
18670;DHT22;9464;44.918;9.670;2023-02-20T21:35:49;10.40;1.00
18670;DHT22;9464;44.918;9.670;2023-02-20T21:38:18;10.40;1.00
18670;DHT22;9464;44.918;9.670;2023-02-20T21:40:47;10.40;1.00
18670;DHT22;9464;44.918;9.670;2023-02-20T21:43:15;10.30;1.00
18670;DHT22;9464;44.918;9.670;2023-02-20T21:46:01;10.30;1.00
18670;DHT22;9464;44.918;9.670;2023-02-20T21:48:30;10.30;1.00
18670;DHT22;9464;44.918;9.670;2023-02-20T21:50:58;10.30;1.00
18670;DHT22;9464;44.918;9.670;2023-02-20T21:53:27;10.30;1.00
18670;DHT22;9464;44.918;9.670;2023-02-20T21:55:56;10.30;1.00
18670;DHT22;9464;44.918;9.670;2023-02-20T21:58:24;10.30;1.00
18670;DHT22;9464;44.918;9.670;2023-02-20T22:01:06;10.30;1.00
18670;DHT22;9464;44.918;9.670;2023-02-20T22:03:33;10.30;1.00
18670;DHT22;9464;44.918;9.670;2023-02-20T22:06:00;10.30;1.00
18670;DHT22;9464;44.918;9.670;2023-02-20T22:08:29;10.20;1.00
18670;DHT22;9464;44.918;9.670;2023-02-20T22:11:15;10.20;1.00
18670;DHT22;9464;44.918;9.670;2023-02-20T22:14:01;10.20;1.00
18670;DHT22;9464;44.918;9.670;2023-02-20T22:16:46;10.20;1.00
18670;DHT22;9464;44.918;9.670;2023-02-20T22:19:32;10.20;1.00
18670;DHT22;9464;44.918;9.670;2023-02-20T22:22:17;10.20;1.00
18670;DHT22;9464;44.918;9.670;2023-02-20T22:25:05;10.20;1.00
18670;DHT22;9464;44.918;9.670;2023-02-20T22:27:50;10.20;1.00
18670;DHT22;9464;44.918;9.670;2023-02-20T22:30:36;10.20;1.00
18670;DHT22;9464;44.918;9.670;2023-02-20T22:33:22;10.20;1.00
18670;DHT22;9464;44.918;9.670;2023-02-20T22:36:07;10.20;1.00
18670;DHT22;9464;44.918;9.670;2023-02-20T22:38:53;10.20;1.00
18670;DHT22;9464;44.918;9.670;2023-02-20T22:41:40;10.20;1.00
18670;DHT22;9464;44.918;9.670;2023-02-20T22:44:25;10.10;1.00
18670;DHT22;9464;44.918;9.670;2023-02-20T22:47:11;10.10;1.00
18670;DHT22;9464;44.918;9.670;2023-02-20T22:49:57;10.20;1.00
18670;DHT22;9464;44.918;9.670;2023-02-20T22:52:43;10.10;1.00
18670;DHT22;9464;44.918;9.670;2023-02-20T22:55:28;10.10;1.00
18670;DHT22;9464;44.918;9.670;2023-02-20T22:58:16;10.10;1.00
18670;DHT22;9464;44.918;9.670;2023-02-20T23:01:02;10.20;1.00
18670;DHT22;9464;44.918;9.670;2023-02-20T23:03:47;10.20;1.00
18670;DHT22;9464;44.918;9.670;2023-02-20T23:06:33;10.20;1.00
18670;DHT22;9464;44.918;9.670;2023-02-20T23:09:18;10.20;1.00
18670;DHT22;9464;44.918;9.670;2023-02-20T23:12:04;10.20;1.00
18670;DHT22;9464;44.918;9.670;2023-02-20T23:14:51;10.20;1.00
18670;DHT22;9464;44.918;9.670;2023-02-20T23:17:37;10.10;1.00
18670;DHT22;9464;44.918;9.670;2023-02-20T23:20:22;10.10;1.00
18670;DHT22;9464;44.918;9.670;2023-02-20T23:23:08;10.10;1.00
18670;DHT22;9464;44.918;9.670;2023-02-20T23:25:54;10.10;1.00
18670;DHT22;9464;44.918;9.670;2023-02-20T23:28:39;10.10;1.00
18670;DHT22;9464;44.918;9.670;2023-02-20T23:31:37;10.10;1.00
18670;DHT22;9464;44.918;9.670;2023-02-20T23:34:24;10.10;1.00
18670;DHT22;9464;44.918;9.670;2023-02-20T23:37:10;10.10;1.00
18670;DHT22;9464;44.918;9.670;2023-02-20T23:39:57;10.00;1.00
18670;DHT22;9464;44.918;9.670;2023-02-20T23:42:47;10.00;1.00
18670;DHT22;9464;44.918;9.670;2023-02-20T23:45:32;10.00;1.00
18670;DHT22;9464;44.918;9.670;2023-02-20T23:48:20;10.00;1.00
18670;DHT22;9464;44.918;9.670;2023-02-20T23:51:08;10.00;1.00
18670;DHT22;9464;44.918;9.670;2023-02-20T23:53:54;10.00;1.00
18670;DHT22;9464;44.918;9.670;2023-02-20T23:56:39;10.00;1.00
18670;DHT22;9464;44.918;9.670;2023-02-20T23:59:25;10.00;1.00
